La Joya, New Mexico
Current Conditions -  °F | °C
As of 6:15 AM on Thursday 27 Nov 2014 (Local Time) from KE80 Reporting Station
Clear Clear  
Wind Chill: -2°   Ceiling: Unl
Heat Index: -2°   Visibility: 10mi
Dew Point: -8°   Wind: 3mph
Humidity: 64%   Direction: 330°NNW
Pressure: 30.46"   Gusts: NA
Location:  34.35°N, 106.84°W
Report Text: KE80 271315Z AUTO 33003KT 10SM CLR M02/M08 A3046 RMK AO2 T10211080
Loading
Personal Weather Stations






























Interactive Weather Map New forecast layout! Learn more

10-Day Weather Forecast

Advertisements
Track Severe Weather on mobile